Time;durP1;ratioP1;P1;durP2;ratioP2;P2;SDS_P1;SDS_P2;PMS_P1;PMS_P2;Temp;Humidity;BMP_temperature;BMP_pressure;BME280_temperature;BME280_humidity;BME280_pressure;Samples;Min_cycle;Max_cycle;Signal;HPM_P1;HPM_P2
2023/09/25 00:00:32;;;;;;;34.50;15.80;;;;;;;22.73;47.27;100958.53;108441;1251;70793;-66
2023/09/25 00:03:00;;;;;;;30.40;15.80;;;;;;;22.51;47.73;100958.96;108285;1251;73053;-66
2023/09/25 00:05:28;;;;;;;27.20;15.50;;;;;;;22.33;47.95;100960.60;108333;1251;60418;-65
2023/09/25 00:07:54;;;;;;;28.10;15.40;;;;;;;22.27;48.12;100958.90;108375;1251;60297;-66
2023/09/25 00:10:21;;;;;;;30.10;16.50;;;;;;;22.24;48.26;100960.91;108287;1251;74430;-67
2023/09/25 00:12:48;;;;;;;36.20;16.00;;;;;;;22.25;48.10;100960.85;108299;1251;70447;-68
2023/09/25 00:15:15;;;;;;;26.90;15.70;;;;;;;22.13;48.58;100962.44;108100;1251;72486;-66
2023/09/25 00:17:43;;;;;;;29.80;16.10;;;;;;;22.08;48.57;100962.63;108261;1251;61841;-64
2023/09/25 00:20:14;;;;;;;23.80;14.60;;;;;;;22.08;48.84;100959.88;108404;1251;60319;-66
2023/09/25 00:22:41;;;;;;;31.80;15.20;;;;;;;22.06;48.55;100958.27;108351;1251;73782;-65
2023/09/25 00:25:08;;;;;;;28.50;14.50;;;;;;;22.07;48.66;100958.00;108120;1251;70013;-65
2023/09/25 00:27:34;;;;;;;27.10;15.40;;;;;;;22.05;48.61;100955.84;108322;1251;71376;-67
2023/09/25 00:30:05;;;;;;;31.90;15.90;;;;;;;21.87;49.10;100951.61;108318;1251;61749;-66
2023/09/25 00:32:33;;;;;;;25.80;14.10;;;;;;;21.90;48.93;100949.91;108060;1251;59050;-66
2023/09/25 00:35:07;;;;;;;31.10;16.30;;;;;;;21.84;49.08;100953.23;108208;1251;73882;-66
2023/09/25 00:37:34;;;;;;;26.00;14.70;;;;;;;21.79;49.27;100958.06;108260;1251;71006;-65
2023/09/25 00:40:11;;;;;;;25.00;15.00;;;;;;;21.79;49.40;100960.55;108295;1251;73207;-67
2023/09/25 00:42:41;;;;;;;26.10;14.90;;;;;;;21.89;49.17;100963.95;108343;1251;60711;-66
2023/09/25 00:45:09;;;;;;;24.40;15.30;;;;;;;22.04;48.89;100973.96;108359;1251;60155;-66
2023/09/25 00:47:36;;;;;;;25.20;14.40;;;;;;;21.82;49.43;100981.26;108315;1251;73963;-66
2023/09/25 00:50:05;;;;;;;25.40;14.60;;;;;;;21.73;49.95;100982.60;108275;1251;70264;-67
2023/09/25 00:52:33;;;;;;;26.40;15.20;;;;;;;21.70;50.02;100987.29;108290;1255;72568;-67
2023/09/25 00:55:00;;;;;;;32.10;16.00;;;;;;;21.70;49.91;100986.19;108287;1251;61913;-66
2023/09/25 00:57:27;;;;;;;32.60;16.00;;;;;;;21.62;50.05;100994.06;108345;1251;59436;-66
2023/09/25 00:59:53;;;;;;;32.10;16.30;;;;;;;21.69;49.89;100991.49;108144;1251;73658;-67
2023/09/25 01:02:20;;;;;;;25.30;15.00;;;;;;;21.67;49.83;100985.70;108351;1252;70166;-67
2023/09/25 01:04:48;;;;;;;34.20;15.50;;;;;;;21.64;49.53;100986.31;108293;1251;72565;-66
2023/09/25 01:07:18;;;;;;;31.20;15.20;;;;;;;21.58;49.72;100984.33;108197;1251;61673;-66
2023/09/25 01:10:10;;;;;;;30.00;15.30;;;;;;;21.58;49.64;100987.56;108258;1251;60297;-67
2023/09/25 01:12:37;;;;;;;31.20;15.90;;;;;;;21.79;49.29;100987.39;108226;1251;72634;-66
2023/09/25 01:15:05;;;;;;;36.80;15.80;;;;;;;21.97;48.70;100989.84;108324;1251;70765;-67
2023/09/25 01:17:32;;;;;;;30.00;15.60;;;;;;;22.06;48.19;100984.92;108132;1251;71341;-66
2023/09/25 01:20:00;;;;;;;23.50;14.50;;;;;;;22.06;48.21;100983.82;108349;1251;60772;-64
2023/09/25 01:22:28;;;;;;;20.90;11.10;;;;;;;22.06;48.44;100987.95;108379;1251;60329;-65
2023/09/25 01:24:55;;;;;;;27.30;14.90;;;;;;;22.07;48.37;100987.14;108345;1251;60339;-65
2023/09/25 01:27:22;;;;;;;33.60;16.50;;;;;;;22.03;48.42;100989.80;108321;1253;70266;-66
2023/09/25 01:29:48;;;;;;;37.80;14.70;;;;;;;22.03;48.25;100989.45;108217;1251;59058;-66
2023/09/25 01:32:15;;;;;;;22.60;14.10;;;;;;;22.03;48.13;100991.21;108225;1251;62046;-66
2023/09/25 01:34:42;;;;;;;25.40;14.40;;;;;;;22.04;48.32;101000.55;108260;1251;60635;-66
2023/09/25 01:37:10;;;;;;;28.30;15.80;;;;;;;22.03;48.13;100999.61;108313;1251;74228;-65
2023/09/25 01:39:36;;;;;;;29.00;14.80;;;;;;;21.93;48.35;100994.73;108150;1251;70117;-66
2023/09/25 01:42:04;;;;;;;32.20;15.60;;;;;;;21.75;48.71;100991.07;108330;1251;72110;-66
2023/09/25 01:44:31;;;;;;;26.80;13.90;;;;;;;21.76;48.67;100998.80;108309;1251;62116;-66
2023/09/25 01:46:57;;;;;;;27.90;15.10;;;;;;;21.79;48.71;101000.27;108260;1251;60309;-67
2023/09/25 01:49:27;;;;;;;30.00;14.90;;;;;;;21.87;48.53;100996.84;108320;1251;74292;-66
2023/09/25 01:51:54;;;;;;;23.80;13.90;;;;;;;21.87;48.61;101002.85;108105;1252;70241;-66
2023/09/25 01:54:20;;;;;;;28.40;14.40;;;;;;;21.90;48.35;101009.97;108311;1251;72480;-66
2023/09/25 01:56:47;;;;;;;25.40;14.80;;;;;;;21.74;48.74;101008.27;108201;1251;61700;-66
2023/09/25 01:59:14;;;;;;;25.50;15.60;;;;;;;21.62;48.98;101006.56;108224;1251;60396;-66
2023/09/25 02:01:41;;;;;;;25.50;15.70;;;;;;;21.58;49.07;101006.52;108091;1251;74194;-66
2023/09/25 02:04:08;;;;;;;22.90;14.70;;;;;;;21.58;49.00;101007.21;108296;1251;70098;-67
2023/09/25 02:06:35;;;;;;;29.30;15.00;;;;;;;21.60;49.06;101007.61;108265;1251;72738;-67
2023/09/25 02:09:02;;;;;;;23.20;14.50;;;;;;;21.50;49.14;101013.09;108065;1251;61823;-67
2023/09/25 02:11:28;;;;;;;34.80;15.80;;;;;;;21.38;49.67;101012.71;108250;1251;60536;-65
2023/09/25 02:13:55;;;;;;;36.80;14.40;;;;;;;21.44;49.51;101012.14;108235;1251;73922;-67
2023/09/25 02:16:21;;;;;;;31.40;15.00;;;;;;;21.45;49.22;101011.16;108269;1251;70276;-66
2023/09/25 02:18:48;;;;;;;24.30;15.20;;;;;;;21.36;49.43;101009.79;108138;1251;72426;-66
2023/09/25 02:21:15;;;;;;;25.10;13.90;;;;;;;21.26;49.73;101012.95;108244;1251;61805;-66
2023/09/25 02:23:42;;;;;;;30.10;14.40;;;;;;;21.22;49.87;101013.09;108239;1251;60289;-66
2023/09/25 02:26:09;;;;;;;26.30;14.90;;;;;;;21.20;49.89;101015.35;108173;1253;73665;-67
2023/09/25 02:28:35;;;;;;;34.80;16.00;;;;;;;21.23;49.94;101016.56;108266;1251;70185;-67
2023/09/25 02:31:02;;;;;;;37.20;16.30;;;;;;;21.16;50.06;101012.36;108376;1251;72415;-67
2023/09/25 02:33:29;;;;;;;31.90;15.50;;;;;;;21.15;49.97;101012.23;108228;1251;61646;-66
2023/09/25 02:36:11;;;;;;;24.10;15.00;;;;;;;21.24;49.82;101011.84;108308;1251;60294;-66
2023/09/25 02:38:38;;;;;;;28.40;14.90;;;;;;;21.12;50.06;101013.21;108258;1251;74052;-66
2023/09/25 02:41:05;;;;;;;30.00;15.40;;;;;;;21.00;50.36;101013.27;108293;1251;69462;-66
2023/09/25 02:43:31;;;;;;;29.10;14.70;;;;;;;20.99;50.43;101013.17;108245;1254;73215;-67
2023/09/25 02:45:58;;;;;;;23.30;15.50;;;;;;;21.04;50.31;101013.19;108250;1251;60352;-66
2023/09/25 02:48:25;;;;;;;27.60;14.90;;;;;;;21.05;50.39;101016.31;108228;1251;60399;-67
2023/09/25 02:50:52;;;;;;;32.70;15.30;;;;;;;20.91;50.69;101015.80;108237;1251;73736;-66
2023/09/25 02:53:18;;;;;;;28.20;15.90;;;;;;;20.82;50.95;101014.30;108229;1251;60382;-66
2023/09/25 02:55:51;;;;;;;25.40;14.70;;;;;;;20.59;51.29;101014.53;108391;1251;72416;-66
2023/09/25 02:58:18;;;;;;;31.70;14.80;;;;;;;20.64;51.18;101013.31;108282;1251;61988;-67
2023/09/25 03:00:47;;;;;;;26.90;14.60;;;;;;;20.60;51.41;101013.40;108087;1251;60336;-66
2023/09/25 03:03:14;;;;;;;23.50;15.60;;;;;;;20.61;51.43;101010.84;108373;1251;74151;-66
2023/09/25 03:05:41;;;;;;;27.30;15.40;;;;;;;20.82;51.01;101010.20;108266;1251;70190;-66
2023/09/25 03:08:08;;;;;;;33.50;15.50;;;;;;;20.75;51.13;101016.34;108069;1254;72880;-66
2023/09/25 03:10:34;;;;;;;26.80;14.40;;;;;;;20.73;51.05;101019.52;108332;1251;61754;-67
2023/09/25 03:13:01;;;;;;;23.00;13.50;;;;;;;20.70;51.09;101013.84;108301;1251;60486;-66
2023/09/25 03:15:28;;;;;;;27.50;14.60;;;;;;;20.70;51.03;101015.08;108054;1258;74197;-67
2023/09/25 03:17:55;;;;;;;22.10;14.30;;;;;;;20.63;51.21;101015.67;108268;1251;70616;-66
2023/09/25 03:20:24;;;;;;;20.80;12.50;;;;;;;20.79;51.05;101015.40;108243;1251;72479;-65
2023/09/25 03:22:50;;;;;;;32.20;15.80;;;;;;;20.74;51.09;101018.34;108171;1251;61789;-65
2023/09/25 03:25:17;;;;;;;30.90;15.50;;;;;;;20.58;51.37;101016.36;108267;1251;60413;-68
2023/09/25 03:27:44;;;;;;;22.70;13.80;;;;;;;20.47;51.79;101017.45;108214;1252;72609;-65
2023/09/25 03:30:13;;;;;;;30.70;16.10;;;;;;;20.59;51.76;101017.40;108129;1251;70236;-66
2023/09/25 03:32:42;;;;;;;21.40;14.50;;;;;;;20.59;51.78;101021.29;108073;1254;72806;-66
2023/09/25 03:35:10;;;;;;;29.90;15.60;;;;;;;20.51;51.83;101019.85;108320;1251;62074;-66
2023/09/25 03:37:37;;;;;;;29.80;16.80;;;;;;;20.55;51.68;101019.44;108270;1251;60336;-66
2023/09/25 03:40:07;;;;;;;29.10;15.80;;;;;;;20.71;51.28;101018.55;108197;1251;74393;-66
2023/09/25 03:42:34;;;;;;;24.90;15.70;;;;;;;20.83;50.97;101021.36;108155;1254;69707;-68
2023/09/25 03:45:01;;;;;;;25.30;14.20;;;;;;;20.78;51.07;101020.45;108257;1253;72447;-67
2023/09/25 03:47:28;;;;;;;23.10;14.90;;;;;;;20.66;51.49;101018.70;108311;1251;60513;-67
2023/09/25 03:49:55;;;;;;;26.60;16.00;;;;;;;20.70;51.40;101022.40;108248;1251;60261;-65
2023/09/25 03:52:22;;;;;;;24.40;15.20;;;;;;;20.84;51.00;101022.71;108333;1251;73978;-67
2023/09/25 03:54:49;;;;;;;27.80;15.80;;;;;;;20.80;51.04;101027.30;108181;1251;70133;-67
2023/09/25 03:57:15;;;;;;;29.10;14.20;;;;;;;20.66;51.48;101026.91;108265;1253;73250;-67
2023/09/25 03:59:42;;;;;;;27.60;14.80;;;;;;;20.74;51.50;101032.50;108282;1251;61026;-67
2023/09/25 04:02:09;;;;;;;23.60;14.90;;;;;;;20.57;51.73;101032.85;108306;1251;60295;-67
2023/09/25 04:04:35;;;;;;;25.20;14.40;;;;;;;20.62;51.88;101037.88;108291;1251;73651;-66
2023/09/25 04:07:03;;;;;;;28.30;14.70;;;;;;;20.66;51.94;101038.89;108287;1251;70785;-66
2023/09/25 04:09:30;;;;;;;23.90;14.80;;;;;;;20.69;51.85;101041.56;108296;1255;73265;-67
2023/09/25 04:11:57;;;;;;;25.70;13.70;;;;;;;20.79;51.75;101045.70;108295;1251;60934;-67
2023/09/25 04:14:24;;;;;;;29.10;14.70;;;;;;;20.87;51.62;101051.48;108274;1251;60319;-66
2023/09/25 04:16:50;;;;;;;28.70;15.10;;;;;;;20.88;51.66;101049.93;108374;1251;73679;-66
2023/09/25 04:19:17;;;;;;;30.90;14.70;;;;;;;20.91;51.83;101052.26;108286;1251;70083;-66
2023/09/25 04:21:47;;;;;;;30.50;14.60;;;;;;;21.13;51.75;101052.21;108297;1251;73098;-66
2023/09/25 04:24:14;;;;;;;41.50;15.00;;;;;;;21.45;51.24;101058.46;108384;1251;62166;-68
2023/09/25 04:26:40;;;;;;;30.50;14.30;;;;;;;21.60;51.03;101059.98;108147;1251;60309;-66
2023/09/25 04:29:14;;;;;;;22.90;12.60;;;;;;;21.74;51.07;101062.64;108281;1253;73555;-66
2023/09/25 04:31:40;;;;;;;36.10;13.60;;;;;;;22.06;50.57;101068.75;108289;1254;68867;-67
2023/09/25 04:34:10;;;;;;;29.80;13.60;;;;;;;22.36;49.74;101073.30;108311;1251;60444;-67
2023/09/25 04:36:37;;;;;;;27.60;13.10;;;;;;;22.55;48.94;101081.62;108318;1251;61655;-67
2023/09/25 04:39:05;;;;;;;24.80;12.70;;;;;;;22.56;48.86;101088.14;108336;1251;60416;-68
2023/09/25 04:41:31;;;;;;;25.70;12.70;;;;;;;22.67;48.60;101091.11;108345;1251;73604;-67
2023/09/25 04:43:58;;;;;;;24.80;12.50;;;;;;;22.86;48.24;101094.70;108321;1251;70712;-67
2023/09/25 04:46:25;;;;;;;25.70;13.00;;;;;;;22.94;48.02;101096.35;108223;1251;60273;-67
2023/09/25 04:48:52;;;;;;;23.40;12.80;;;;;;;23.17;47.77;101098.20;108231;1251;61166;-67
2023/09/25 04:51:20;;;;;;;28.70;13.40;;;;;;;23.51;47.14;101093.70;108224;1251;60299;-67
2023/09/25 04:53:47;;;;;;;33.40;12.90;;;;;;;23.79;46.68;101101.58;108237;1252;73643;-67
2023/09/25 04:56:21;;;;;;;26.90;11.60;;;;;;;24.23;45.70;101093.82;108205;1251;70321;-69
2023/09/25 04:58:47;;;;;;;34.00;12.70;;;;;;;24.77;44.94;101092.78;108263;1251;72403;-67
2023/09/25 05:01:15;;;;;;;44.40;12.20;;;;;;;25.26;44.18;101096.15;108450;1251;61829;-68
2023/09/25 05:03:41;;;;;;;24.90;11.10;;;;;;;25.81;42.94;101092.21;108126;1251;60970;-67
2023/09/25 05:06:10;;;;;;;28.80;11.80;;;;;;;26.25;42.11;101102.43;108214;1254;73815;-67
2023/09/25 05:08:38;;;;;;;31.30;10.90;;;;;;;26.49;41.49;101099.27;108259;1251;70260;-67
2023/09/25 05:11:05;;;;;;;39.10;12.20;;;;;;;26.77;40.92;101094.95;108295;1251;71231;-67
2023/09/25 05:13:34;;;;;;;48.40;11.60;;;;;;;27.15;39.92;101092.62;108244;1251;62214;-67
2023/09/25 05:16:01;;;;;;;47.00;12.00;;;;;;;27.31;39.43;101097.66;108302;1255;60468;-68
2023/09/25 05:20:18;;;;;;;49.40;11.60;;;;;;;26.02;42.47;101111.44;104973;1290;601002;-68
2023/09/25 05:22:48;;;;;;;48.00;11.50;;;;;;;27.25;39.93;101106.98;107338;1266;61738;-68
2023/09/25 05:25:16;;;;;;;34.10;10.50;;;;;;;27.71;39.06;101111.05;107356;1264;59949;-67
2023/09/25 05:27:45;;;;;;;36.60;11.10;;;;;;;28.17;38.32;101113.74;107924;1257;71640;-67
2023/09/25 05:30:13;;;;;;;27.40;10.60;;;;;;;28.47;37.49;101116.86;107922;1257;70205;-68
2023/09/25 05:32:43;;;;;;;30.30;10.30;;;;;;;28.78;36.90;101115.45;107836;1258;71409;-68
2023/09/25 05:35:10;;;;;;;36.60;10.70;;;;;;;29.05;35.89;101112.71;107798;1254;59319;-67
2023/09/25 05:37:40;;;;;;;22.30;10.10;;;;;;;29.25;35.62;101113.35;108034;1254;60575;-68
2023/09/25 05:40:10;;;;;;;27.20;9.40;;;;;;;29.49;35.28;101111.60;108066;1254;72209;-68
2023/09/25 05:42:38;;;;;;;26.50;9.70;;;;;;;29.89;34.87;101111.86;108077;1254;69823;-69
2023/09/25 05:45:06;;;;;;;28.40;10.30;;;;;;;30.29;33.88;101118.27;108077;1254;71441;-67
2023/09/25 05:47:34;;;;;;;29.80;10.10;;;;;;;30.46;33.50;101122.73;108162;1254;60200;-68
2023/09/25 05:50:03;;;;;;;25.20;9.30;;;;;;;30.59;33.31;101121.22;108107;1258;59509;-68
2023/09/25 05:52:30;;;;;;;23.70;8.70;;;;;;;30.70;33.26;101118.58;108059;1254;72328;-68
2023/09/25 05:54:58;;;;;;;21.40;8.30;;;;;;;30.98;32.61;101125.02;108141;1254;68674;-68
2023/09/25 05:57:26;;;;;;;22.40;8.60;;;;;;;31.39;32.10;101126.26;108029;1254;72465;-68
2023/09/25 05:59:54;;;;;;;28.90;8.80;;;;;;;31.72;31.45;101127.86;108128;1259;60466;-68
2023/09/25 06:02:21;;;;;;;27.30;9.00;;;;;;;31.97;31.20;101126.21;108103;1254;59512;-69
2023/09/25 06:04:55;;;;;;;21.60;8.50;;;;;;;32.43;30.77;101127.67;108142;1254;72984;-69
2023/09/25 06:07:23;;;;;;;22.00;7.90;;;;;;;32.80;30.24;101127.64;107828;1257;70301;-69
2023/09/25 06:09:50;;;;;;;19.60;8.20;;;;;;;33.17;29.65;101131.76;107807;1257;71457;-66
2023/09/25 06:12:18;;;;;;;17.50;7.90;;;;;;;33.71;29.02;101131.71;108030;1255;59470;-68
2023/09/25 06:14:46;;;;;;;24.00;8.00;;;;;;;34.21;28.25;101129.86;107956;1255;59686;-68
2023/09/25 06:17:15;;;;;;;25.80;7.80;;;;;;;34.57;27.71;101130.42;107936;1254;62844;-68
2023/09/25 06:19:42;;;;;;;16.40;7.90;;;;;;;34.98;27.40;101128.77;107892;1255;61423;-68
2023/09/25 06:22:10;;;;;;;21.90;7.60;;;;;;;35.32;26.59;101130.02;107892;1257;62580;-68
2023/09/25 06:24:37;;;;;;;17.00;6.70;;;;;;;35.47;26.26;101136.71;107872;1256;59484;-68
2023/09/25 06:27:05;;;;;;;20.20;7.10;;;;;;;35.75;26.10;101139.51;107898;1257;59519;-68
2023/09/25 06:29:32;;;;;;;21.20;7.90;;;;;;;35.94;25.70;101137.77;107947;1256;63030;-67
2023/09/25 06:31:59;;;;;;;16.70;7.20;;;;;;;35.96;25.41;101139.52;107944;1259;61319;-69
2023/09/25 06:34:28;;;;;;;15.50;7.40;;;;;;;36.18;25.29;101141.70;108029;1258;63739;-66
2023/09/25 06:36:56;;;;;;;15.90;6.50;;;;;;;36.57;24.60;101142.71;107913;1256;59589;-68
2023/09/25 06:39:23;;;;;;;14.60;7.00;;;;;;;36.73;24.13;101149.05;107905;1260;59538;-69
2023/09/25 06:41:51;;;;;;;19.10;6.70;;;;;;;36.71;23.82;101149.42;107771;1257;62846;-69
2023/09/25 06:44:22;;;;;;;20.40;7.60;;;;;;;36.46;24.09;101150.33;107963;1257;62000;-68
2023/09/25 06:46:49;;;;;;;19.60;7.80;;;;;;;36.50;24.01;101148.75;107820;1256;62993;-69
2023/09/25 06:49:18;;;;;;;18.50;7.30;;;;;;;36.42;23.88;101151.44;107882;1257;59596;-68
2023/09/25 06:51:47;;;;;;;15.50;6.80;;;;;;;36.78;23.85;101152.48;107943;1260;59109;-67
2023/09/25 06:54:14;;;;;;;18.80;6.40;;;;;;;36.78;24.02;101155.50;107834;1256;64143;-68
2023/09/25 06:56:42;;;;;;;13.30;6.10;;;;;;;37.00;24.21;101160.10;107930;1257;60350;-68
2023/09/25 06:59:09;;;;;;;14.90;6.20;;;;;;;37.40;24.12;101162.58;107905;1257;63830;-70
2023/09/25 07:01:37;;;;;;;14.10;6.30;;;;;;;37.87;23.62;101160.56;108005;1256;59524;-69
2023/09/25 07:04:04;;;;;;;18.90;6.20;;;;;;;38.35;23.20;101162.04;107948;1258;59621;-68
2023/09/25 07:06:33;;;;;;;10.20;5.90;;;;;;;38.70;22.72;101163.48;107965;1257;64114;-68
2023/09/25 07:09:01;;;;;;;18.10;6.30;;;;;;;39.16;22.01;101166.85;107831;1256;61896;-66
2023/09/25 07:11:29;;;;;;;17.50;6.80;;;;;;;39.34;21.71;101168.83;107938;1257;63773;-67
2023/09/25 07:13:57;;;;;;;14.80;6.10;;;;;;;39.32;21.69;101170.52;107887;1257;59531;-67
2023/09/25 07:16:24;;;;;;;18.20;6.30;;;;;;;39.66;21.42;101174.54;107891;1258;59918;-68
2023/09/25 07:18:51;;;;;;;17.80;6.10;;;;;;;39.80;21.33;101177.41;107831;1256;62965;-68
2023/09/25 07:21:20;;;;;;;17.10;5.90;;;;;;;39.97;21.17;101175.08;107705;1256;61360;-68
2023/09/25 07:23:47;;;;;;;20.60;6.00;;;;;;;40.18;21.27;101171.43;107673;1257;63751;-69
2023/09/25 07:26:17;;;;;;;21.20;6.40;;;;;;;40.68;20.81;101175.88;107695;1257;62054;-70
2023/09/25 07:28:46;;;;;;;11.90;5.30;;;;;;;41.28;20.26;101179.81;107739;1257;59513;-68
2023/09/25 07:31:22;;;;;;;16.00;6.00;;;;;;;41.55;19.93;101177.25;107765;1256;64113;-70
2023/09/25 07:36:50;;;;;;;12.80;6.00;;;;;;;40.85;20.80;101177.36;106038;1292;604818;-96
2023/09/25 07:39:41;;;;;;;16.20;5.50;;;;;;;41.99;19.76;101178.29;108711;1267;57476;-94
2023/09/25 07:42:22;;;;;;;14.70;5.70;;;;;;;41.96;19.22;101183.06;108821;1266;56904;-94
2023/09/25 07:44:54;;;;;;;14.50;5.70;;;;;;;41.68;19.69;101182.11;108667;1266;62477;-93
2023/09/25 07:47:55;;;;;;;14.20;5.40;;;;;;;41.87;19.66;101180.96;108784;1260;63106;-94
2023/09/25 07:50:29;;;;;;;13.40;6.00;;;;;;;42.05;19.45;101187.73;108310;1258;259349;-95
2023/09/25 07:52:59;;;;;;;16.20;5.80;;;;;;;42.26;19.47;101190.88;108507;1257;59272;-94
2023/09/25 07:55:49;;;;;;;16.30;5.60;;;;;;;42.63;19.10;101194.55;108377;1258;57121;-95
2023/09/25 07:58:22;;;;;;;17.50;6.20;;;;;;;42.89;19.02;101197.66;108689;1257;62579;-94
2023/09/25 08:01:04;;;;;;;11.60;5.60;;;;;;;42.98;18.60;101198.32;108766;1256;59749;-96
2023/09/25 08:03:33;;;;;;;17.40;6.30;;;;;;;43.07;18.38;101199.61;108544;1258;63857;-93
2023/09/25 08:06:05;;;;;;;18.70;6.00;;;;;;;43.26;18.23;101199.65;108718;1257;59518;-92
2023/09/25 08:09:13;;;;;;;13.10;5.40;;;;;;;43.29;18.11;101203.83;108821;1256;58127;-94
2023/09/25 08:11:56;;;;;;;20.10;5.90;;;;;;;43.18;18.22;101199.04;108853;1263;72515;-95
2023/09/25 08:14:35;;;;;;;14.70;6.10;;;;;;;43.24;18.29;101207.54;109080;1257;60513;-93
2023/09/25 08:17:21;;;;;;;15.20;6.00;;;;;;;43.38;18.33;101203.16;108777;1260;62927;-95
2023/09/25 08:20:22;;;;;;;15.80;5.30;;;;;;;43.87;17.97;101205.80;108896;1257;57152;-93
2023/09/25 08:23:11;;;;;;;16.80;5.40;;;;;;;44.35;17.58;101210.83;108986;1257;57196;-94
2023/09/25 08:25:55;;;;;;;14.50;5.60;;;;;;;44.38;17.26;101207.08;108870;1256;65170;-91
2023/09/25 08:28:38;;;;;;;18.60;5.70;;;;;;;44.15;17.18;101207.63;108944;1256;60577;-94
2023/09/25 08:31:23;;;;;;;18.60;5.20;;;;;;;44.03;17.18;101204.19;109277;1257;63921;-92
2023/09/25 08:34:02;;;;;;;17.10;5.00;;;;;;;43.78;17.18;101208.41;109225;1257;57244;-91
2023/09/25 08:36:40;;;;;;;14.60;5.40;;;;;;;43.19;17.57;101203.55;109248;1257;56711;-92
2023/09/25 08:39:26;;;;;;;17.80;4.80;;;;;;;42.75;17.93;101202.45;109231;1256;62903;-93
2023/09/25 08:42:41;;;;;;;30.60;5.60;;;;;;;42.57;17.93;101202.05;109085;1257;60480;-96
2023/09/25 08:45:38;;;;;;;12.10;4.80;;;;;;;42.38;17.88;101201.77;108041;1260;79579;-69
2023/09/25 08:48:05;;;;;;;17.40;4.60;;;;;;;42.31;17.91;101205.73;107511;1260;59610;-68
2023/09/25 08:50:32;;;;;;;14.20;4.60;;;;;;;42.31;18.17;101204.20;107633;1259;59490;-68
2023/09/25 08:52:59;;;;;;;17.90;5.40;;;;;;;42.21;18.21;101202.20;107928;1256;64514;-67
2023/09/25 08:55:26;;;;;;;18.80;5.40;;;;;;;42.32;18.38;101204.52;107931;1259;61379;-69
2023/09/25 08:57:52;;;;;;;22.30;5.90;;;;;;;42.69;17.65;101204.61;107621;1256;63790;-69
2023/09/25 09:00:19;;;;;;;13.60;4.30;;;;;;;43.03;17.56;101206.79;107760;1256;59465;-69
2023/09/25 09:02:46;;;;;;;25.00;5.50;;;;;;;43.31;17.44;101208.86;107996;1257;60310;-69
2023/09/25 09:05:13;;;;;;;21.40;5.20;;;;;;;43.64;17.36;101209.67;107976;1257;64574;-68
2023/09/25 09:07:55;;;;;;;17.60;5.50;;;;;;;44.00;16.63;101209.73;107949;1259;61964;-68
2023/09/25 09:10:22;;;;;;;19.30;5.90;;;;;;;44.10;16.41;101207.34;107912;1256;65141;-69
2023/09/25 09:12:52;;;;;;;18.90;4.70;;;;;;;44.08;16.81;101204.70;107848;1256;59609;-68
2023/09/25 09:15:30;;;;;;;22.10;5.20;;;;;;;44.13;16.63;101207.12;107924;1259;59485;-69
2023/09/25 09:17:57;;;;;;;13.90;4.60;;;;;;;44.40;16.50;101204.96;107928;1257;65440;-66
2023/09/25 09:20:37;;;;;;;18.40;4.90;;;;;;;44.45;16.35;101202.04;107928;1256;62807;-67
2023/09/25 09:23:06;;;;;;;16.40;5.50;;;;;;;44.54;16.09;101202.27;107728;1262;65148;-68
2023/09/25 09:25:33;;;;;;;18.00;4.90;;;;;;;44.43;15.98;101199.99;107901;1255;59094;-68
2023/09/25 09:28:00;;;;;;;21.50;5.40;;;;;;;44.07;16.41;101197.91;107899;1256;59510;-68
2023/09/25 09:30:28;;;;;;;14.90;4.40;;;;;;;43.78;16.69;101200.32;107781;1256;65792;-67
2023/09/25 09:32:54;;;;;;;22.00;5.20;;;;;;;43.54;16.94;101202.39;107955;1256;61496;-68
2023/09/25 09:35:24;;;;;;;17.90;4.30;;;;;;;43.39;17.15;101200.06;107885;1256;65160;-67
2023/09/25 09:37:54;;;;;;;16.20;4.40;;;;;;;43.22;16.87;101200.34;107852;1257;59480;-68
2023/09/25 09:40:25;;;;;;;27.90;5.40;;;;;;;42.94;16.88;101197.30;107912;1258;59550;-68
2023/09/25 09:42:52;;;;;;;21.10;4.40;;;;;;;42.82;17.16;101200.75;107862;1257;73111;-69
2023/09/25 09:45:22;;;;;;;11.00;4.80;;;;;;;43.04;17.30;101200.10;107863;1256;61751;-69
2023/09/25 09:47:50;;;;;;;13.10;4.50;;;;;;;43.54;16.82;101203.45;107875;1260;62754;-68
2023/09/25 09:50:21;;;;;;;22.90;6.00;;;;;;;43.72;16.54;101207.61;107878;1257;61025;-67
2023/09/25 09:52:48;;;;;;;15.20;5.10;;;;;;;43.47;16.64;101203.65;107907;1258;59365;-69
2023/09/25 09:55:15;;;;;;;16.30;4.50;;;;;;;43.27;16.53;101200.11;107945;1256;64277;-68
2023/09/25 09:57:42;;;;;;;21.80;5.10;;;;;;;43.21;16.77;101195.78;107872;1256;63642;-67
2023/09/25 10:00:10;;;;;;;26.60;5.30;;;;;;;43.24;17.01;101198.12;107598;1257;63875;-68
2023/09/25 10:02:39;;;;;;;22.60;5.10;;;;;;;43.17;17.10;101198.30;107882;1258;59618;-69
2023/09/25 10:05:06;;;;;;;19.70;5.20;;;;;;;42.95;17.42;101189.83;107872;1257;59387;-68
2023/09/25 10:07:33;;;;;;;21.60;5.80;;;;;;;42.83;17.24;101189.05;107688;1258;65491;-69
2023/09/25 10:10:04;;;;;;;18.70;5.30;;;;;;;42.84;17.13;101185.05;107623;1256;62670;-69
2023/09/25 10:12:38;;;;;;;22.80;5.10;;;;;;;43.52;16.59;101185.16;107864;1260;63869;-68
2023/09/25 10:15:07;;;;;;;27.70;4.80;;;;;;;43.95;16.33;101178.73;107827;1256;59919;-68
2023/09/25 10:17:41;;;;;;;12.50;4.80;;;;;;;44.13;16.06;101176.03;107626;1258;59664;-68
2023/09/25 10:20:32;;;;;;;22.00;4.70;;;;;;;44.07;16.29;101173.95;107913;1260;64789;-69
2023/09/25 10:23:31;;;;;;;23.10;4.90;;;;;;;43.91;16.30;101170.12;107634;1257;63024;-68
2023/09/25 10:26:02;;;;;;;19.80;4.70;;;;;;;43.71;16.25;101169.80;107568;1257;63779;-68
2023/09/25 10:28:38;;;;;;;23.40;4.50;;;;;;;43.81;15.94;101161.64;107842;1256;59673;-68
2023/09/25 10:31:18;;;;;;;21.00;4.50;;;;;;;44.17;15.75;101160.54;107889;1258;59605;-68
2023/09/25 10:33:57;;;;;;;19.10;3.80;;;;;;;44.27;15.41;101160.67;107933;1259;64310;-68
2023/09/25 10:36:39;;;;;;;15.80;4.60;;;;;;;43.92;15.73;101161.86;107761;1256;61652;-68
2023/09/25 10:39:13;;;;;;;17.10;4.60;;;;;;;43.53;16.04;101165.34;107865;1258;65307;-68
2023/09/25 10:41:41;;;;;;;13.60;3.70;;;;;;;43.52;16.27;101160.83;107883;1257;59484;-67
2023/09/25 10:44:11;;;;;;;20.70;4.30;;;;;;;43.48;16.21;101160.48;107854;1257;59916;-68
2023/09/25 10:46:39;;;;;;;15.90;4.00;;;;;;;43.27;16.23;101161.41;107658;1257;64489;-67
2023/09/25 10:49:08;;;;;;;25.90;4.50;;;;;;;43.12;16.25;101155.55;107865;1260;61398;-69
2023/09/25 10:51:35;;;;;;;30.00;4.80;;;;;;;43.02;16.45;101152.97;107860;1258;64253;-68
2023/09/25 10:54:03;;;;;;;17.60;4.20;;;;;;;42.74;16.62;101150.06;107806;1256;60184;-67
2023/09/25 10:56:30;;;;;;;16.60;3.80;;;;;;;42.56;16.46;101152.07;107644;1257;59557;-68
2023/09/25 10:58:57;;;;;;;24.10;4.80;;;;;;;42.57;16.55;101148.16;107629;1257;64283;-68
2023/09/25 11:01:27;;;;;;;18.50;4.50;;;;;;;42.59;16.54;101149.70;107766;1262;61682;-68
2023/09/25 11:03:57;;;;;;;20.30;4.50;;;;;;;42.23;16.62;101148.95;107833;1257;63896;-68
2023/09/25 11:06:24;;;;;;;16.70;4.00;;;;;;;42.00;16.68;101143.62;107846;1257;59598;-67
2023/09/25 11:09:07;;;;;;;15.40;4.20;;;;;;;42.07;16.75;101140.86;107756;1258;59629;-68
2023/09/25 11:11:34;;;;;;;16.50;4.30;;;;;;;42.07;16.79;101138.56;107912;1258;63007;-69
2023/09/25 11:14:01;;;;;;;27.90;5.20;;;;;;;42.14;16.94;101142.26;107857;1256;60696;-67
2023/09/25 11:16:28;;;;;;;18.80;4.50;;;;;;;41.78;17.07;101146.84;107882;1257;63855;-68
2023/09/25 11:19:04;;;;;;;19.70;4.90;;;;;;;41.93;16.85;101141.95;107900;1262;59460;-69
2023/09/25 11:21:33;;;;;;;16.60;4.20;;;;;;;42.12;16.78;101138.85;107862;1257;59137;-69